Old Fort, Ohio
Current Conditions -  °F | °C
As of 3:33 PM on Saturday 25 Oct 2014 (Local Time) from KPCW Reporting Station
Clear Clear  
Wind Chill: 72°   Ceiling: Unl
Heat Index: 72°   Visibility: 10mi
Dew Point: 55°   Wind: 17mph
Humidity: 57%   Direction: 280°W
Pressure: 29.76"   Gusts: NA
Location:  41.24°N, 83.15°W
Report Text: KPCW 251933Z AUTO 28015KT 10SM CLR 22/13 A2976 RMK AO2 $
Loading
Personal Weather Stations






























Interactive Weather Map
Tropical Storm Tracking
New forecast layout! Learn more

10-Day Weather Forecast

Advertisements
Track Severe Weather on mobile